This is the latest recevied weather packets stored in our database for station/object MKSRDG. If no packets are shown the sender has not sent any weather packets the latest 10 day(s).
| Time | Temp. | Humidity | Pressure | Rain* | Wind** | Luminosity | Snow |
|---|---|---|---|---|---|---|---|
| 1777613098 | 15.56° C | 71% | 1014.7 hPa | 0 mm | - | 0 W/m² | - |
| 1777612198 | 15.56° C | 70% | 1014.7 hPa | 0 mm | - | 0 W/m² | - |
| 1777611298 | 16.11° C | 68% | 1014.7 hPa | 0 mm | - | 0 W/m² | - |
| 1777610398 | 16.11° C | 68% | 1014.5 hPa | 0 mm | - | 0 W/m² | - |
| 1777609498 | 16.67° C | 67% | 1014.4 hPa | 0 mm | - | 0 W/m² | - |
| 1777608599 | 16.67° C | 67% | 1014.3 hPa | 0 mm | - | 0 W/m² | - |
| 1777607699 | 16.67° C | 66% | 1014 hPa | 0 mm | - | 0 W/m² | - |
| 1777606799 | 17.22° C | 63% | 1013.8 hPa | 0 mm | - | 0 W/m² | - |
| 1777605898 | 17.78° C | 59% | 1013.8 hPa | 0 mm | - | 0 W/m² | - |
| 1777604998 | 18.33° C | 57% | 1013.6 hPa | 0 mm | - | 7 W/m² | - |
| 1777604099 | 18.89° C | 56% | 1013.5 hPa | 0 mm | - | 25 W/m² | - |
| 1777603199 | 19.44° C | 52% | 1013.4 hPa | 0 mm | - | 62 W/m² | - |
| 1777602299 | 19.44° C | 52% | 1013.5 hPa | 0 mm | - | 90 W/m² | - |
| 1777601399 | 19.44° C | 51% | 1013.4 hPa | 0 mm | - | 54 W/m² | - |
| 1777600499 | 20° C | 51% | 1013.6 hPa | 0 mm | - | 69 W/m² | - |
| 1777599599 | 21.11° C | 48% | 1013.6 hPa | 0 mm | - | 141 W/m² | - |
| 1777598699 | 21.67° C | 48% | 1013.8 hPa | 0 mm | - | 274 W/m² | - |
| 1777597799 | 21.67° C | 48% | 1013.8 hPa | 0 mm | - | 346 W/m² | - |
| 1777596899 | 22.22° C | 47% | 1013.9 hPa | 0 mm | - | 403 W/m² | - |
| 1777595999 | 21.67° C | 49% | 1014 hPa | 0 mm | - | 450 W/m² | - |
| 1777595099 | 22.22° C | 51% | 1014.1 hPa | 0 mm | - | 494 W/m² | - |
| 1777594199 | 22.22° C | 51% | 1014.1 hPa | 0 mm | - | 524 W/m² | - |
| 1777593299 | 22.22° C | 50% | 1014.2 hPa | 0 mm | - | 582 W/m² | - |
| 1777592399 | 21.67° C | 53% | 1014.5 hPa | 0 mm | - | 624 W/m² | - |
| 1777591499 | 21.67° C | 56% | 1014.7 hPa | 0 mm | - | 664 W/m² | - |
* Rain latest hour (hover to see other rain measurements)
** Current wind speed in m/s (hover to see current wind gust speed)